Time;durP1;ratioP1;P1;durP2;ratioP2;P2;SDS_P1;SDS_P2;PMS_P1;PMS_P2;Temp;Humidity;BMP_temperature;BMP_pressure;BME280_temperature;BME280_humidity;BME280_pressure;Samples;Min_cycle;Max_cycle;Signal;HPM_P1;HPM_P2
2023/08/07 00:00:21;;;;;;;7.13;6.73;;;13.90;41.30;;;;;;6216987;23;20160;-76
2023/08/07 00:02:46;;;;;;;6.93;6.63;;;13.80;39.90;;;;;;6214560;23;20163;-76
2023/08/07 00:05:12;;;;;;;7.23;6.93;;;13.90;40.60;;;;;;6242127;23;20225;-76
2023/08/07 00:07:37;;;;;;;6.93;6.67;;;13.90;40.80;;;;;;6216884;23;20178;-77
2023/08/07 00:10:03;;;;;;;7.53;7.03;;;13.80;39.70;;;;;;6243034;23;20159;-76
2023/08/07 00:12:29;;;;;;;6.63;6.33;;;13.80;40.20;;;;;;6216122;23;20170;-76
2023/08/07 00:14:54;;;;;;;7.30;6.90;;;13.70;40.40;;;;;;6244348;23;20682;-76
2023/08/07 00:17:20;;;;;;;7.17;6.77;;;13.70;40.20;;;;;;6217109;23;20262;-76
2023/08/07 00:19:45;;;;;;;7.43;6.93;;;13.70;40.40;;;;;;6219472;23;20159;-76
2023/08/07 00:22:11;;;;;;;7.83;7.43;;;13.70;40.30;;;;;;6257254;23;20155;-76
2023/08/07 00:24:36;;;;;;;7.60;7.30;;;13.80;39.60;;;;;;6255137;23;20657;-76
2023/08/07 00:27:02;;;;;;;7.80;7.30;;;13.90;38.90;;;;;;6262555;22;20193;-77
2023/08/07 00:29:28;;;;;;;6.93;6.57;;;13.80;38.40;;;;;;6261732;23;20144;-75
2023/08/07 00:31:54;;;;;;;7.47;7.07;;;13.80;38.70;;;;;;6240974;23;20382;-77
2023/08/07 00:34:19;;;;;;;7.27;6.87;;;13.80;39.20;;;;;;6265594;23;20520;-77
2023/08/07 00:36:45;;;;;;;6.77;6.47;;;13.80;38.20;;;;;;6256841;22;20229;-76
2023/08/07 00:39:10;;;;;;;7.43;7.13;;;13.90;39.20;;;;;;6249763;23;20147;-76
2023/08/07 00:41:36;;;;;;;7.40;7.07;;;13.90;38.00;;;;;;6243030;23;20148;-76
2023/08/07 00:44:01;;;;;;;7.67;7.17;;;13.90;37.70;;;;;;6217366;23;20152;-77
2023/08/07 00:46:29;;;;;;;8.27;7.67;;;13.90;38.30;;;;;;6218355;23;20191;-77
2023/08/07 00:48:55;;;;;;;7.80;7.50;;;13.90;38.00;;;;;;6243528;23;20159;-77
2023/08/07 00:51:21;;;;;;;7.27;7.07;;;13.90;37.20;;;;;;6215292;23;20427;-77
2023/08/07 00:53:47;;;;;;;7.50;7.10;;;13.90;36.90;;;;;;6241615;23;20376;-76
2023/08/07 00:56:13;;;;;;;8.23;7.83;;;13.80;36.90;;;;;;6242485;22;20461;-76
2023/08/07 00:58:39;;;;;;;7.80;7.40;;;13.80;37.70;;;;;;6241928;23;20409;-76
2023/08/07 01:01:06;;;;;;;8.87;8.37;;;13.80;36.20;;;;;;6241602;23;20151;-77
2023/08/07 01:03:31;;;;;;;8.10;7.70;;;13.90;36.10;;;;;;6242350;23;20477;-77
2023/08/07 01:05:57;;;;;;;8.00;7.57;;;14.00;37.20;;;;;;6240845;23;20897;-77
2023/08/07 01:08:24;;;;;;;7.80;7.50;;;13.90;36.50;;;;;;6215677;23;20179;-77
2023/08/07 01:11:06;;;;;;;7.47;7.17;;;13.80;37.00;;;;;;6241132;23;20225;-76
2023/08/07 01:13:40;;;;;;;7.37;7.07;;;13.90;37.80;;;;;;6241739;23;20358;-76
2023/08/07 01:16:13;;;;;;;7.53;7.23;;;13.90;36.50;;;;;;6214855;22;20646;-76
2023/08/07 01:18:40;;;;;;;7.00;6.70;;;14.00;37.30;;;;;;6216127;23;20378;-77
2023/08/07 01:21:06;;;;;;;7.80;7.43;;;14.00;37.50;;;;;;6241153;23;20379;-77
2023/08/07 01:23:31;;;;;;;7.47;7.10;;;14.10;36.60;;;;;;6242877;23;20411;-76
2023/08/07 01:25:57;;;;;;;8.90;8.50;;;14.10;35.40;;;;;;6241112;23;20523;-76
2023/08/07 01:28:28;;;;;;;8.73;8.10;;;14.00;36.20;;;;;;6242756;22;20171;-77
2023/08/07 01:30:56;;;;;;;8.03;7.70;;;14.00;35.10;;;;;;6242233;23;20185;-77
2023/08/07 01:33:27;;;;;;;8.20;7.70;;;13.80;35.40;;;;;;6215603;23;20382;-77
2023/08/07 01:35:58;;;;;;;7.50;7.10;;;13.90;36.70;;;;;;6214608;23;20794;-77
2023/08/07 01:38:26;;;;;;;8.10;7.70;;;13.90;35.10;;;;;;6214496;23;20402;-77
2023/08/07 01:40:53;;;;;;;8.13;7.83;;;14.00;35.00;;;;;;6241327;23;20381;-77
2023/08/07 01:43:19;;;;;;;8.23;7.83;;;13.90;35.60;;;;;;6213201;23;20378;-77
2023/08/07 01:45:45;;;;;;;8.00;7.60;;;13.80;34.80;;;;;;6216026;23;20932;-76
2023/08/07 01:48:11;;;;;;;8.13;7.83;;;13.70;34.70;;;;;;6214751;23;20410;-76
2023/08/07 01:50:39;;;;;;;8.83;8.33;;;13.70;34.90;;;;;;6242651;23;20159;-76
2023/08/07 01:53:05;;;;;;;8.37;7.97;;;13.70;34.70;;;;;;6216514;23;20432;-76
2023/08/07 01:55:31;;;;;;;8.73;8.13;;;13.60;34.70;;;;;;6215886;23;20389;-77
2023/08/07 01:57:57;;;;;;;8.77;8.27;;;13.70;34.80;;;;;;6242299;22;20395;-76
2023/08/07 02:00:23;;;;;;;8.40;7.90;;;13.70;34.80;;;;;;6215060;23;20392;-77
2023/08/07 02:02:48;;;;;;;8.00;7.70;;;13.80;34.80;;;;;;6242740;23;20143;-77
2023/08/07 02:05:14;;;;;;;8.30;7.87;;;13.70;33.60;;;;;;6242525;23;20173;-77
2023/08/07 02:07:41;;;;;;;8.23;7.77;;;13.80;34.30;;;;;;6241878;22;20168;-77
2023/08/07 02:13:28;;;;;;;7.73;7.23;;;13.80;33.40;;;;;;6243717;23;20338;-77
2023/08/07 02:15:53;;;;;;;8.43;8.03;;;13.90;33.40;;;;;;6215693;23;20397;-77
2023/08/07 02:18:19;;;;;;;8.27;7.77;;;14.00;32.50;;;;;;6217529;23;20177;-77
2023/08/07 02:20:45;;;;;;;8.40;7.70;;;13.90;32.20;;;;;;6215879;23;20525;-76
2023/08/07 02:23:11;;;;;;;7.67;7.30;;;13.90;32.40;;;;;;6242276;23;20159;-76
2023/08/07 02:25:37;;;;;;;8.00;7.70;;;13.90;32.20;;;;;;6243518;23;20710;-77
2023/08/07 02:28:02;;;;;;;7.97;7.63;;;13.90;32.40;;;;;;6244460;22;20237;-77
2023/08/07 02:30:28;;;;;;;8.70;8.10;;;13.80;32.70;;;;;;6245870;23;20152;-77
2023/08/07 02:32:53;;;;;;;8.40;8.10;;;13.80;32.40;;;;;;6215900;23;20190;-77
2023/08/07 02:35:19;;;;;;;7.97;7.60;;;13.80;32.90;;;;;;6243291;23;20399;-76
2023/08/07 02:37:44;;;;;;;8.37;7.87;;;13.80;32.70;;;;;;6242981;22;20176;-76
2023/08/07 02:40:11;;;;;;;9.17;8.57;;;13.70;32.50;;;;;;6216509;23;20166;-76
2023/08/07 02:42:36;;;;;;;7.13;6.83;;;13.80;32.90;;;;;;6215609;23;20164;-77
2023/08/07 02:45:02;;;;;;;7.23;6.93;;;13.90;31.70;;;;;;6217104;23;20901;-77
2023/08/07 02:47:28;;;;;;;8.33;7.83;;;13.90;31.00;;;;;;6242821;22;20190;-77
2023/08/07 02:49:53;;;;;;;7.73;7.33;;;13.80;30.40;;;;;;6243450;23;20163;-77
2023/08/07 02:52:19;;;;;;;8.10;7.80;;;13.80;30.90;;;;;;6243206;23;20223;-76
2023/08/07 02:54:44;;;;;;;8.43;8.00;;;13.70;31.10;;;;;;6216624;23;20198;-77
2023/08/07 02:57:10;;;;;;;7.83;7.47;;;13.60;30.50;;;;;;6243820;22;20177;-77
2023/08/07 02:59:35;;;;;;;8.40;8.00;;;13.70;29.80;;;;;;6216558;23;20171;-77
2023/08/07 03:02:01;;;;;;;8.97;8.57;;;13.70;30.30;;;;;;6243750;23;20467;-77
2023/08/07 03:04:26;;;;;;;9.67;8.50;;;13.70;29.80;;;;;;6218078;23;20151;-76
2023/08/07 03:06:52;;;;;;;9.10;8.53;;;13.70;29.70;;;;;;6215659;23;20518;-77
2023/08/07 03:09:18;;;;;;;9.63;9.13;;;13.70;30.00;;;;;;6242299;23;20155;-77
2023/08/07 03:11:43;;;;;;;10.47;9.77;;;13.80;29.70;;;;;;6216879;23;20163;-77
2023/08/07 03:14:09;;;;;;;10.00;9.40;;;13.80;29.40;;;;;;6217220;23;20186;-77
2023/08/07 03:16:34;;;;;;;9.57;9.00;;;13.70;29.60;;;;;;6244456;22;20641;-77
2023/08/07 03:19:00;;;;;;;9.10;8.70;;;13.70;29.80;;;;;;6244508;23;20144;-77
2023/08/07 03:21:25;;;;;;;9.10;8.70;;;13.60;29.70;;;;;;6242052;23;20632;-77
2023/08/07 03:23:51;;;;;;;8.77;8.40;;;13.80;30.00;;;;;;6241864;23;20544;-77
2023/08/07 03:26:16;;;;;;;9.50;9.10;;;13.80;29.30;;;;;;6242392;22;20172;-77
2023/08/07 03:28:42;;;;;;;9.43;8.93;;;13.80;29.30;;;;;;6215904;23;20152;-77
2023/08/07 03:31:07;;;;;;;8.63;8.30;;;13.70;30.00;;;;;;6215860;23;20492;-77
2023/08/07 03:33:33;;;;;;;9.57;9.10;;;13.70;29.80;;;;;;6243181;23;20374;-77
2023/08/07 03:35:58;;;;;;;8.97;8.50;;;13.70;29.70;;;;;;6244758;23;20193;-76
2023/08/07 03:38:24;;;;;;;9.60;9.10;;;13.60;30.70;;;;;;6242493;22;20178;-76
2023/08/07 03:40:49;;;;;;;9.33;8.73;;;13.60;30.10;;;;;;6243537;23;20587;-76
2023/08/07 03:43:15;;;;;;;8.57;8.17;;;13.60;30.10;;;;;;6243845;23;20159;-77
2023/08/07 03:45:41;;;;;;;9.03;8.53;;;13.60;30.70;;;;;;6215632;23;20182;-76
2023/08/07 03:48:07;;;;;;;10.03;9.43;;;13.70;29.70;;;;;;6215387;23;20179;-77
2023/08/07 03:50:34;;;;;;;8.20;7.80;;;13.60;30.00;;;;;;6241746;23;20390;-76
2023/08/07 03:53:01;;;;;;;9.27;8.77;;;13.50;30.80;;;;;;6241414;23;20205;-76
2023/08/07 03:55:26;;;;;;;10.03;9.23;;;13.50;30.50;;;;;;6242405;23;20374;-75
2023/08/07 03:57:52;;;;;;;9.10;8.50;;;13.50;30.80;;;;;;6242898;22;20400;-76
2023/08/07 04:00:18;;;;;;;9.57;9.07;;;13.50;30.50;;;;;;6215816;23;20158;-76
2023/08/07 04:02:44;;;;;;;8.63;8.13;;;13.50;30.80;;;;;;6216251;23;20159;-76
2023/08/07 04:05:10;;;;;;;7.77;7.30;;;13.40;30.90;;;;;;6242243;23;20418;-76
2023/08/07 04:07:36;;;;;;;8.83;8.43;;;13.50;31.10;;;;;;6242227;22;20174;-77
2023/08/07 04:10:02;;;;;;;8.47;8.00;;;13.50;31.00;;;;;;6216058;23;20378;-76
2023/08/07 04:12:27;;;;;;;8.70;8.40;;;13.50;31.10;;;;;;6216051;23;20151;-77
2023/08/07 04:14:53;;;;;;;8.70;8.23;;;13.50;30.80;;;;;;6241727;23;20545;-77
2023/08/07 04:17:18;;;;;;;8.67;8.07;;;13.50;31.40;;;;;;6241279;22;20176;-76
2023/08/07 04:19:44;;;;;;;8.70;8.20;;;13.50;30.70;;;;;;6242792;23;20232;-77
2023/08/07 04:22:09;;;;;;;10.00;9.30;;;13.50;30.60;;;;;;6216227;23;20155;-77
2023/08/07 04:24:35;;;;;;;9.70;9.20;;;13.40;30.60;;;;;;6243216;23;20242;-76
2023/08/07 04:27:00;;;;;;;9.13;8.63;;;13.40;30.90;;;;;;6215723;23;20242;-76
2023/08/07 04:29:26;;;;;;;8.70;7.90;;;13.50;30.90;;;;;;6216375;23;20153;-76
2023/08/07 04:31:51;;;;;;;9.37;8.77;;;13.50;31.20;;;;;;6215726;23;20630;-76
2023/08/07 04:34:17;;;;;;;9.50;9.00;;;13.50;30.60;;;;;;6243313;23;20151;-76
2023/08/07 04:36:42;;;;;;;8.70;8.00;;;13.60;30.30;;;;;;6242791;22;20537;-77
2023/08/07 04:39:08;;;;;;;9.43;8.83;;;13.60;30.30;;;;;;6241755;23;20230;-77
2023/08/07 04:41:33;;;;;;;8.80;8.40;;;13.60;30.30;;;;;;6216023;23;20216;-77
2023/08/07 04:43:59;;;;;;;8.70;8.30;;;13.70;29.90;;;;;;6241943;23;20537;-77
2023/08/07 04:46:25;;;;;;;9.00;8.50;;;13.80;30.00;;;;;;6242467;22;20183;-76
2023/08/07 04:48:50;;;;;;;8.77;8.03;;;13.90;29.40;;;;;;6242133;23;20190;-77
2023/08/07 04:51:16;;;;;;;8.10;7.60;;;13.90;29.10;;;;;;6244189;23;20131;-77
2023/08/07 04:53:41;;;;;;;8.90;8.50;;;13.90;29.30;;;;;;6244894;23;20144;-78
2023/08/07 14:01:37;;;;;;;7.63;7.23;;;18.00;16.50;;;;;;6207256;22;20458;-78
2023/08/07 14:04:03;;;;;;;8.27;7.80;;;18.10;17.10;;;;;;6251303;22;20374;-78
2023/08/07 14:06:29;;;;;;;8.57;8.27;;;18.10;16.80;;;;;;6231204;23;20194;-77
2023/08/07 14:08:54;;;;;;;6.90;6.70;;;18.10;16.80;;;;;;6224038;23;20409;-77
2023/08/07 14:11:20;;;;;;;8.07;7.77;;;18.20;17.80;;;;;;6247099;23;20139;-77
2023/08/07 14:13:47;;;;;;;7.40;7.13;;;18.20;16.20;;;;;;6218888;23;20230;-76
2023/08/07 14:16:12;;;;;;;8.30;8.00;;;18.20;16.20;;;;;;6220745;23;20421;-77
2023/08/07 14:18:38;;;;;;;11.37;10.67;;;18.30;15.80;;;;;;6247029;23;20453;-77
2023/08/07 14:21:04;;;;;;;7.90;7.60;;;18.40;15.30;;;;;;6247045;23;20262;-76
2023/08/07 14:23:30;;;;;;;12.13;11.33;;;18.40;14.90;;;;;;6247060;23;20151;-77
2023/08/07 14:25:56;;;;;;;8.20;7.90;;;18.40;15.30;;;;;;6245911;22;20187;-77
2023/08/07 14:28:21;;;;;;;8.43;8.13;;;18.50;15.20;;;;;;6219397;23;20386;-77
2023/08/07 14:30:47;;;;;;;8.27;7.97;;;18.50;15.00;;;;;;6219261;23;20242;-77
2023/08/07 14:33:13;;;;;;;8.73;8.33;;;18.50;14.70;;;;;;6247314;23;20156;-77
2023/08/07 14:35:39;;;;;;;8.13;7.83;;;18.60;15.10;;;;;;6245934;22;20402;-76
2023/08/07 14:38:04;;;;;;;8.33;7.93;;;18.50;15.20;;;;;;6246120;23;20155;-77
2023/08/07 14:40:30;;;;;;;8.60;8.10;;;18.50;15.50;;;;;;6247334;23;20151;-77
2023/08/07 14:42:56;;;;;;;8.03;7.73;;;18.50;15.20;;;;;;6246930;23;20603;-77
2023/08/07 14:45:23;;;;;;;8.03;7.70;;;18.50;15.10;;;;;;6219502;23;20198;-76
2023/08/07 14:47:49;;;;;;;7.80;7.27;;;18.50;15.20;;;;;;6246639;23;20638;-76
2023/08/07 14:50:16;;;;;;;7.63;7.33;;;18.60;15.30;;;;;;6219985;23;20382;-77
2023/08/07 14:52:41;;;;;;;7.87;7.37;;;18.70;15.10;;;;;;6219653;23;20159;-76
2023/08/07 14:55:07;;;;;;;7.60;7.20;;;18.70;15.50;;;;;;6246293;22;20425;-75
2023/08/07 14:57:32;;;;;;;7.53;7.23;;;18.70;15.50;;;;;;6219482;23;20156;-77
2023/08/07 14:59:58;;;;;;;7.27;6.87;;;18.80;15.60;;;;;;6218748;23;20201;-76
2023/08/07 15:02:23;;;;;;;7.80;7.40;;;18.70;15.80;;;;;;6246365;23;20285;-77
2023/08/07 15:04:49;;;;;;;7.50;7.20;;;18.70;15.70;;;;;;6246693;22;20153;-77
2023/08/07 15:07:14;;;;;;;6.87;6.50;;;18.70;15.20;;;;;;6219524;23;20750;-77
2023/08/07 15:09:40;;;;;;;8.03;7.67;;;18.80;14.80;;;;;;6245985;23;20144;-77
2023/08/07 15:12:06;;;;;;;7.50;7.10;;;18.80;14.60;;;;;;6246195;23;20148;-76
2023/08/07 15:14:32;;;;;;;7.33;7.03;;;18.80;14.40;;;;;;6246077;23;20175;-77
2023/08/07 15:16:58;;;;;;;8.30;8.00;;;18.60;14.60;;;;;;6246217;22;20394;-77
2023/08/07 15:19:23;;;;;;;7.20;6.90;;;18.60;15.20;;;;;;6245295;23;20375;-77
2023/08/07 15:21:51;;;;;;;39.10;22.20;;;18.60;15.20;;;;;;6244655;23;20197;-77
2023/08/07 15:24:16;;;;;;;10.20;9.20;;;18.60;15.20;;;;;;6245738;23;20206;-77
2023/08/07 15:26:42;;;;;;;8.27;7.67;;;18.60;15.50;;;;;;6245423;22;20421;-76
2023/08/07 15:29:07;;;;;;;7.40;7.00;;;18.50;15.70;;;;;;6245621;23;20634;-77
2023/08/07 15:31:33;;;;;;;8.87;7.87;;;18.40;15.90;;;;;;6245432;23;20266;-77
2023/08/07 15:33:58;;;;;;;8.07;7.57;;;18.40;16.30;;;;;;6245553;23;20327;-77
2023/08/07 15:36:24;;;;;;;9.80;8.87;;;18.50;16.30;;;;;;6219236;23;20179;-78
2023/08/07 15:38:50;;;;;;;7.40;7.00;;;18.50;16.00;;;;;;6245418;23;20231;-77
2023/08/07 15:41:16;;;;;;;8.10;7.70;;;18.50;16.20;;;;;;6219376;23;20151;-78
2023/08/07 15:43:42;;;;;;;7.10;6.80;;;18.60;16.30;;;;;;6219412;23;20390;-77
2023/08/07 15:46:07;;;;;;;7.57;7.27;;;18.50;16.40;;;;;;6246576;22;20228;-77
2023/08/07 15:48:33;;;;;;;8.03;7.73;;;18.50;16.60;;;;;;6245670;23;20143;-76
2023/08/07 15:50:58;;;;;;;7.60;7.23;;;18.50;16.70;;;;;;6245720;23;20206;-77
2023/08/07 15:53:24;;;;;;;7.93;7.53;;;18.60;16.50;;;;;;6246024;23;20226;-77
2023/08/07 15:55:49;;;;;;;7.43;7.13;;;18.60;16.30;;;;;;6245786;22;20168;-77
2023/08/07 15:58:17;;;;;;;7.03;6.83;;;18.60;15.20;;;;;;6245818;23;20175;-75
2023/08/07 16:00:42;;;;;;;7.70;7.20;;;18.70;15.20;;;;;;6245135;23;20221;-77
2023/08/07 16:03:08;;;;;;;7.37;7.07;;;18.70;14.80;;;;;;6245449;23;20390;-77
2023/08/07 16:05:35;;;;;;;7.20;6.90;;;18.70;15.50;;;;;;6218396;23;20643;-76
2023/08/07 16:08:02;;;;;;;8.43;7.93;;;18.60;15.10;;;;;;6245314;23;20147;-77
2023/08/07 16:10:28;;;;;;;7.60;7.30;;;18.50;15.30;;;;;;6218539;23;20429;-76
2023/08/07 16:12:54;;;;;;;8.10;7.70;;;18.50;15.50;;;;;;6245398;23;20849;-77
2023/08/07 16:15:20;;;;;;;6.43;6.20;;;18.50;15.90;;;;;;6245611;22;20657;-76
2023/08/07 16:17:46;;;;;;;6.90;6.70;;;18.50;16.10;;;;;;6245414;23;20378;-77
2023/08/07 16:20:12;;;;;;;7.73;7.37;;;18.60;16.20;;;;;;6245337;23;20401;-76
2023/08/07 16:22:37;;;;;;;6.80;6.57;;;18.50;16.30;;;;;;6245503;23;20603;-76
2023/08/07 16:25:04;;;;;;;7.50;7.20;;;18.60;16.20;;;;;;6244878;22;20401;-77
2023/08/07 16:27:29;;;;;;;7.20;6.90;;;18.60;16.10;;;;;;6245531;23;20143;-76
2023/08/07 16:29:55;;;;;;;7.20;6.90;;;18.60;16.40;;;;;;6245175;23;20378;-77
2023/08/07 16:32:21;;;;;;;6.60;6.40;;;18.60;15.90;;;;;;6245278;23;20144;-77
2023/08/07 16:34:47;;;;;;;7.00;6.70;;;18.60;16.50;;;;;;6218142;22;20209;-77
2023/08/07 16:37:12;;;;;;;6.70;6.40;;;18.60;16.40;;;;;;6244680;23;20378;-76
2023/08/07 16:39:39;;;;;;;6.90;6.60;;;18.70;16.40;;;;;;6245097;23;20485;-77
2023/08/07 16:42:05;;;;;;;7.63;7.23;;;18.70;16.30;;;;;;6218393;23;20163;-76
2023/08/07 16:44:31;;;;;;;7.90;7.30;;;18.70;16.50;;;;;;6244812;23;20375;-76
2023/08/07 16:46:56;;;;;;;9.20;8.70;;;18.70;15.70;;;;;;6244590;22;20421;-76
2023/08/07 16:49:22;;;;;;;7.70;7.40;;;18.70;16.20;;;;;;6244454;23;20147;-76
2023/08/07 16:51:48;;;;;;;7.50;7.10;;;18.70;16.40;;;;;;6244696;23;20155;-77
2023/08/07 16:54:13;;;;;;;7.93;7.60;;;18.80;16.60;;;;;;6244739;23;20201;-77
2023/08/07 16:56:39;;;;;;;7.53;7.10;;;18.80;16.60;;;;;;6218279;23;20398;-77
2023/08/07 16:59:05;;;;;;;7.60;7.20;;;18.80;16.60;;;;;;6244635;23;20163;-77
2023/08/07 17:01:30;;;;;;;7.20;6.70;;;18.70;16.50;;;;;;6246183;23;20148;-77
2023/08/07 17:03:56;;;;;;;6.83;6.53;;;18.70;16.50;;;;;;6245883;23;20140;-77
2023/08/07 17:06:21;;;;;;;6.50;6.20;;;18.60;16.90;;;;;;6244937;22;20179;-76
2023/08/07 17:08:49;;;;;;;6.93;6.50;;;18.60;16.80;;;;;;6217888;23;20213;-77
2023/08/07 17:11:15;;;;;;;6.07;5.77;;;18.70;16.60;;;;;;6245011;23;20178;-77
2023/08/07 17:13:41;;;;;;;6.00;5.70;;;18.70;16.90;;;;;;6244996;23;20711;-76
2023/08/07 17:16:06;;;;;;;6.67;6.07;;;18.70;16.80;;;;;;6244636;22;20202;-75
2023/08/07 17:18:32;;;;;;;5.40;5.00;;;18.80;16.60;;;;;;6244728;23;20148;-75
2023/08/07 17:20:57;;;;;;;5.40;5.10;;;18.80;16.50;;;;;;6244572;23;20159;-76
2023/08/07 17:23:23;;;;;;;6.33;5.93;;;18.80;16.40;;;;;;6245053;23;20595;-76
2023/08/07 17:25:48;;;;;;;5.70;5.50;;;18.70;16.50;;;;;;6244641;22;20182;-75
2023/08/07 17:28:14;;;;;;;6.10;5.90;;;18.60;16.80;;;;;;6244444;23;20221;-75
2023/08/07 17:30:39;;;;;;;6.50;6.10;;;18.60;16.50;;;;;;6244812;23;20231;-75
2023/08/07 17:33:05;;;;;;;6.50;6.17;;;18.60;16.80;;;;;;6244612;23;20227;-76
2023/08/07 17:35:31;;;;;;;5.90;5.60;;;18.50;16.90;;;;;;6244728;22;20167;-76
2023/08/07 17:37:56;;;;;;;7.00;6.50;;;18.50;17.00;;;;;;6244539;23;20151;-76
2023/08/07 17:40:23;;;;;;;6.50;6.30;;;18.50;17.20;;;;;;6218115;23;20155;-75
2023/08/07 17:42:49;;;;;;;6.00;5.70;;;18.50;17.50;;;;;;6244610;23;20231;-75
2023/08/07 17:45:14;;;;;;;6.50;6.13;;;18.60;17.50;;;;;;6244374;22;20453;-76
2023/08/07 17:47:40;;;;;;;5.83;5.63;;;18.60;17.60;;;;;;6245665;23;20458;-77
2023/08/07 17:50:09;;;;;;;6.20;6.00;;;18.60;17.50;;;;;;6248362;23;20158;-78
2023/08/07 17:52:35;;;;;;;5.70;5.50;;;18.60;17.80;;;;;;6248934;23;20147;-77
2023/08/07 17:55:01;;;;;;;5.80;5.50;;;18.50;18.00;;;;;;6248497;22;20401;-76
2023/08/07 17:57:27;;;;;;;5.60;5.40;;;18.50;17.90;;;;;;6248532;23;20370;-77
2023/08/07 17:59:52;;;;;;;6.67;6.27;;;18.40;18.20;;;;;;6248020;23;20297;-75
2023/08/07 18:02:18;;;;;;;5.97;5.77;;;18.40;18.40;;;;;;6248370;23;20159;-78
2023/08/07 18:04:43;;;;;;;6.00;5.73;;;18.40;18.50;;;;;;6249235;22;20146;-77
2023/08/07 18:07:09;;;;;;;6.40;6.10;;;18.40;18.60;;;;;;6249584;23;20491;-78
2023/08/07 18:09:34;;;;;;;5.73;5.53;;;18.40;18.40;;;;;;6222142;23;20151;-77
2023/08/07 18:12:00;;;;;;;6.57;6.17;;;18.40;18.60;;;;;;6248717;23;20169;-77
2023/08/07 18:14:25;;;;;;;5.90;5.70;;;18.40;18.50;;;;;;6221468;23;20153;-77
2023/08/07 18:16:51;;;;;;;6.13;5.83;;;18.40;19.10;;;;;;6221609;23;20509;-77
2023/08/07 18:19:16;;;;;;;5.57;5.27;;;18.40;18.70;;;;;;6247746;23;20151;-77
2023/08/07 18:21:42;;;;;;;6.50;6.10;;;18.30;18.70;;;;;;6221540;23;20634;-77
2023/08/07 18:24:07;;;;;;;5.40;5.10;;;18.30;19.10;;;;;;6247885;23;20151;-77
2023/08/07 18:26:33;;;;;;;7.00;6.40;;;18.30;19.00;;;;;;6289299;22;20209;-76
2023/08/07 18:28:58;;;;;;;5.63;5.13;;;18.30;19.30;;;;;;6309928;22;20141;-77
2023/08/07 18:31:29;;;;;;;5.73;5.53;;;18.30;19.20;;;;;;6285166;22;20523;-77
2023/08/07 18:33:55;;;;;;;6.60;6.33;;;18.20;19.10;;;;;;6284509;22;20138;-77
2023/08/07 18:36:21;;;;;;;6.60;6.30;;;18.20;19.10;;;;;;6264968;22;20427;-76
2023/08/07 18:38:46;;;;;;;5.90;5.70;;;18.20;18.90;;;;;;6253654;22;20161;-76
2023/08/07 18:41:12;;;;;;;6.30;5.97;;;18.10;19.10;;;;;;6278965;22;20157;-76
2023/08/07 18:43:38;;;;;;;6.10;5.90;;;18.10;19.30;;;;;;6278658;22;20162;-77
2023/08/07 18:46:03;;;;;;;6.50;6.20;;;18.00;19.40;;;;;;6278117;22;20178;-77
2023/08/07 18:48:29;;;;;;;6.17;5.83;;;18.10;20.10;;;;;;6251169;22;20377;-76
2023/08/07 18:50:57;;;;;;;5.80;5.50;;;18.10;19.70;;;;;;6278586;22;20155;-76
2023/08/07 18:53:25;;;;;;;5.90;5.40;;;18.10;19.60;;;;;;6250747;22;20151;-77
2023/08/07 18:55:51;;;;;;;6.27;5.77;;;18.10;19.70;;;;;;6251194;22;20405;-77
2023/08/07 18:58:16;;;;;;;6.40;6.10;;;18.20;19.80;;;;;;6278481;22;20431;-77
2023/08/07 19:00:42;;;;;;;6.00;5.80;;;18.20;19.50;;;;;;6276879;22;20154;-78
2023/08/07 19:03:07;;;;;;;6.70;6.40;;;18.20;20.00;;;;;;6276454;22;20178;-77
2023/08/07 19:05:33;;;;;;;6.03;5.83;;;18.10;19.70;;;;;;6276430;22;20175;-77
2023/08/07 19:07:58;;;;;;;6.57;6.17;;;18.10;20.00;;;;;;6276620;22;20531;-77
2023/08/07 19:10:24;;;;;;;6.00;5.80;;;18.00;20.30;;;;;;6276806;22;20248;-77
2023/08/07 19:12:49;;;;;;;6.30;5.90;;;17.90;20.30;;;;;;6249278;22;20154;-77
2023/08/07 19:15:16;;;;;;;6.70;6.20;;;17.80;20.20;;;;;;6249520;22;20174;-77
2023/08/07 19:17:42;;;;;;;5.90;5.60;;;17.80;20.20;;;;;;6280095;22;20155;-77
2023/08/07 19:20:08;;;;;;;6.73;6.30;;;17.70;20.60;;;;;;6277698;22;20436;-78
2023/08/07 19:22:33;;;;;;;5.63;5.40;;;17.70;20.20;;;;;;6278121;22;20229;-77
2023/08/07 19:24:59;;;;;;;5.60;5.30;;;17.60;20.20;;;;;;6277841;22;20380;-77
2023/08/07 19:27:24;;;;;;;5.70;5.40;;;17.50;20.40;;;;;;6253064;22;20142;-77
2023/08/07 19:29:50;;;;;;;5.67;5.47;;;17.50;20.60;;;;;;6285614;22;20150;-77
2023/08/07 19:32:16;;;;;;;6.10;5.80;;;17.60;20.40;;;;;;6280349;22;20185;-78
2023/08/07 19:34:51;;;;;;;5.80;5.60;;;17.60;20.90;;;;;;6279194;22;20150;-78
2023/08/07 19:37:16;;;;;;;5.70;5.50;;;17.60;20.10;;;;;;6281870;22;20365;-78
2023/08/07 19:39:42;;;;;;;6.07;5.77;;;17.50;20.40;;;;;;6250151;22;20946;-76
2023/08/07 19:42:08;;;;;;;6.47;6.17;;;17.60;20.80;;;;;;6249923;22;20159;-77
2023/08/07 19:44:35;;;;;;;5.97;5.67;;;17.60;20.50;;;;;;6276926;22;20183;-77
2023/08/07 19:47:00;;;;;;;5.30;5.10;;;17.60;20.20;;;;;;6276862;22;20491;-76
2023/08/07 19:49:26;;;;;;;6.00;5.80;;;17.50;20.50;;;;;;6276279;22;20499;-76
2023/08/07 19:51:51;;;;;;;6.47;6.03;;;17.40;20.80;;;;;;6249512;22;20678;-76
2023/08/07 19:54:17;;;;;;;5.80;5.60;;;17.30;20.90;;;;;;6276677;22;20230;-75
2023/08/07 19:56:43;;;;;;;6.60;6.30;;;17.30;21.00;;;;;;6277206;22;20493;-77
2023/08/07 19:59:08;;;;;;;6.40;6.00;;;17.30;21.10;;;;;;6249441;22;20269;-77
2023/08/07 20:01:34;;;;;;;6.00;5.70;;;17.20;21.20;;;;;;6250793;22;20177;-76
2023/08/07 20:04:00;;;;;;;5.80;5.40;;;17.20;21.70;;;;;;6276480;22;20516;-77
2023/08/07 20:06:25;;;;;;;6.27;5.77;;;17.20;21.60;;;;;;6249089;22;20229;-77
2023/08/07 20:08:51;;;;;;;6.03;5.73;;;17.20;21.80;;;;;;6273631;22;20792;-77
2023/08/07 20:11:17;;;;;;;5.77;5.50;;;17.20;21.50;;;;;;6275621;22;20630;-75
2023/08/07 20:13:44;;;;;;;5.50;5.30;;;17.20;21.70;;;;;;6275748;22;20131;-77
2023/08/07 20:16:10;;;;;;;5.10;4.90;;;17.20;21.70;;;;;;6248239;22;20722;-77
2023/08/07 20:18:35;;;;;;;5.97;5.67;;;17.30;21.50;;;;;;6275080;22;20372;-77
2023/08/07 20:21:01;;;;;;;8.90;8.40;;;17.30;21.50;;;;;;6275785;22;20146;-78
2023/08/07 20:23:26;;;;;;;6.50;6.20;;;17.40;21.60;;;;;;6249445;22;20189;-77
2023/08/07 20:25:53;;;;;;;6.37;6.07;;;17.50;21.10;;;;;;6243990;22;20214;-77
2023/08/07 20:28:19;;;;;;;5.33;5.10;;;17.60;20.90;;;;;;6245782;22;20148;-77
2023/08/07 20:30:45;;;;;;;5.70;5.40;;;17.60;20.90;;;;;;6244494;23;20753;-76
2023/08/07 20:33:10;;;;;;;5.67;5.47;;;17.70;20.60;;;;;;6245524;22;20226;-76
2023/08/07 20:35:36;;;;;;;5.33;5.00;;;17.70;20.40;;;;;;6243440;22;20231;-76
2023/08/07 20:38:02;;;;;;;5.87;5.57;;;17.70;20.30;;;;;;6245141;22;20151;-77
2023/08/07 20:40:30;;;;;;;4.90;4.60;;;17.60;20.80;;;;;;6243567;23;20151;-76
2023/08/07 20:42:55;;;;;;;5.53;5.33;;;17.60;20.90;;;;;;6245905;23;20205;-75
2023/08/07 20:45:21;;;;;;;6.00;5.70;;;17.60;20.70;;;;;;6245102;22;20422;-77
2023/08/07 20:47:46;;;;;;;5.77;5.47;;;17.60;20.80;;;;;;6245258;23;20595;-76
2023/08/07 20:50:12;;;;;;;5.40;5.10;;;17.70;20.80;;;;;;6246135;23;20147;-77
2023/08/07 20:52:38;;;;;;;6.07;5.87;;;17.50;21.00;;;;;;6244805;23;20147;-76
2023/08/07 20:55:04;;;;;;;6.33;6.03;;;17.30;21.50;;;;;;6244743;22;20487;-76
2023/08/07 20:57:30;;;;;;;5.87;5.57;;;17.30;21.50;;;;;;6246062;23;20386;-77
2023/08/07 20:59:55;;;;;;;6.23;5.93;;;17.20;21.80;;;;;;6247934;23;20410;-76
2023/08/07 21:02:21;;;;;;;5.73;5.53;;;17.30;21.70;;;;;;6245532;23;20148;-76
2023/08/07 21:04:46;;;;;;;5.50;5.30;;;17.40;21.60;;;;;;6249804;23;20614;-77
2023/08/07 21:07:12;;;;;;;6.17;5.87;;;17.40;21.40;;;;;;6245487;22;20286;-77
2023/08/07 21:09:37;;;;;;;6.53;6.33;;;17.50;21.20;;;;;;6244926;23;20197;-77
2023/08/07 21:12:03;;;;;;;6.30;6.00;;;17.50;21.20;;;;;;6248273;23;20143;-77
2023/08/07 21:14:31;;;;;;;6.50;6.20;;;17.50;21.20;;;;;;6246881;23;20139;-76
2023/08/07 21:16:57;;;;;;;6.17;5.87;;;17.50;21.20;;;;;;6242907;22;20410;-77
2023/08/07 21:19:22;;;;;;;6.40;6.10;;;17.40;21.20;;;;;;6244195;23;20394;-77
2023/08/07 21:21:48;;;;;;;6.13;5.80;;;17.40;21.20;;;;;;6243653;23;20156;-77
2023/08/07 21:24:13;;;;;;;6.33;6.13;;;17.20;21.60;;;;;;6243875;23;20193;-76
2023/08/07 21:26:40;;;;;;;6.50;6.20;;;17.00;22.10;;;;;;6250654;22;20248;-77
2023/08/07 21:29:06;;;;;;;6.10;5.90;;;17.00;22.40;;;;;;6250357;22;20228;-77
2023/08/07 21:31:32;;;;;;;5.77;5.57;;;16.80;22.40;;;;;;6276784;22;20829;-76
2023/08/07 21:33:58;;;;;;;5.97;5.77;;;16.70;22.80;;;;;;6249959;22;20155;-77
2023/08/07 21:36:24;;;;;;;6.30;6.00;;;16.70;23.10;;;;;;6277768;22;20474;-77
2023/08/07 21:38:50;;;;;;;6.10;5.90;;;16.60;23.10;;;;;;6277607;22;20991;-78
2023/08/07 21:41:16;;;;;;;6.37;6.07;;;16.70;23.20;;;;;;6251922;22;20154;-77
2023/08/07 21:43:41;;;;;;;6.77;6.47;;;16.60;23.20;;;;;;6277330;22;20430;-77
2023/08/07 21:46:07;;;;;;;7.40;7.00;;;16.70;23.70;;;;;;6275231;22;20634;-77